Ernest, Pennsylvania
Current Conditions -  °F | °C
As of 10:55 AM on Friday 31 Oct 2014 (Local Time) from KIDI Reporting Station
Overcast Overcast  
Wind Chill: 42°   Ceiling: 5000
Heat Index: 45°   Visibility: 10mi
Dew Point: 39°   Wind: 5mph
Humidity: 81%   Direction: 230°SW
Pressure: 29.97"   Gusts: NA
Location:  40.68°N, 79.16°W
Report Text: KIDI 311455Z AUTO 23004KT 10SM OVC050 07/04 A2997 RMK A01
Loading
Personal Weather Stations






























Interactive Weather Map
Tropical Storm Tracking
New forecast layout! Learn more

10-Day Weather Forecast

Advertisements
Track Severe Weather on mobile